Time;durP1;ratioP1;P1;durP2;ratioP2;P2;SDS_P1;SDS_P2;PMS_P1;PMS_P2;Temp;Humidity;BMP_temperature;BMP_pressure;BME280_temperature;BME280_humidity;BME280_pressure;Samples;Min_cycle;Max_cycle;Signal;HPM_P1;HPM_P2
2021/04/25 00:01:20;;;;;;;11.48;6.60;;;;;;;6.91;44.72;100576.81;3555888;40;20049;-67
2021/04/25 00:03:47;;;;;;;13.80;6.53;;;;;;;6.89;44.88;100573.38;3557072;40;20044;-67
2021/04/25 00:06:13;;;;;;;11.43;6.00;;;;;;;6.88;44.54;100574.25;3556358;40;20064;-68
2021/04/25 00:08:39;;;;;;;11.90;5.95;;;;;;;6.90;44.58;100577.69;3555843;40;20340;-68
2021/04/25 00:11:06;;;;;;;12.07;6.15;;;;;;;6.93;44.21;100569.81;3556060;40;20322;-68
2021/04/25 00:13:33;;;;;;;18.85;8.85;;;;;;;6.89;44.41;100557.75;3557652;40;20123;-68
2021/04/25 00:16:00;;;;;;;15.48;6.32;;;;;;;6.83;44.35;100560.44;3556929;40;20048;-69
2021/04/25 00:18:26;;;;;;;12.27;6.47;;;;;;;6.80;44.19;100557.88;3555812;40;20042;-69
2021/04/25 00:20:53;;;;;;;9.95;5.65;;;;;;;6.80;43.78;100557.88;3556987;40;20064;-69
2021/04/25 00:23:20;;;;;;;13.80;6.47;;;;;;;6.79;43.78;100553.56;3556542;40;20135;-67
2021/04/25 00:25:54;;;;;;;10.40;5.45;;;;;;;6.80;43.54;100546.59;3555330;40;20056;-67
2021/04/25 00:28:21;;;;;;;9.18;4.70;;;;;;;6.76;43.16;100538.00;3556633;40;20030;-67
2021/04/25 00:30:47;;;;;;;9.57;4.82;;;;;;;6.64;43.31;100539.06;3557838;40;20060;-68
2021/04/25 00:33:14;;;;;;;10.15;4.60;;;;;;;6.59;43.11;100534.81;3557408;40;20045;-67
2021/04/25 00:35:41;;;;;;;9.98;4.53;;;;;;;6.58;42.98;100533.09;3555958;40;20049;-67
2021/04/25 00:38:07;;;;;;;9.02;4.63;;;;;;;6.60;42.88;100533.94;3556005;40;20042;-67
2021/04/25 00:40:33;;;;;;;9.88;5.13;;;;;;;6.62;42.70;100534.75;3556845;40;20048;-68
2021/04/25 00:43:00;;;;;;;8.30;4.25;;;;;;;6.62;42.70;100532.16;3554634;40;20082;-67
2021/04/25 00:45:26;;;;;;;9.30;5.00;;;;;;;6.63;42.67;100526.91;3556942;40;20048;-67
2021/04/25 00:47:53;;;;;;;8.95;5.05;;;;;;;6.65;42.34;100522.53;3555701;40;20045;-67
2021/04/25 00:50:24;;;;;;;8.70;4.10;;;;;;;6.57;42.67;100526.19;3556861;40;20034;-67
2021/04/25 00:52:54;;;;;;;10.55;5.03;;;;;;;6.54;42.61;100527.09;3556007;40;20035;-67
2021/04/25 00:55:23;;;;;;;10.10;4.45;;;;;;;6.49;42.63;100523.72;3562958;40;20062;-68
2021/04/25 00:57:51;;;;;;;8.32;4.63;;;;;;;6.49;42.62;100530.66;3556335;40;20461;-67
2021/04/25 01:00:18;;;;;;;10.18;4.95;;;;;;;6.47;42.60;100527.25;3557100;40;20042;-67
2021/04/25 01:02:44;;;;;;;7.35;4.38;;;;;;;6.43;42.75;100529.88;3556614;40;20038;-66
2021/04/25 01:05:12;;;;;;;10.88;4.43;;;;;;;6.38;42.76;100523.03;3556303;40;20034;-67
2021/04/25 01:07:39;;;;;;;7.63;4.30;;;;;;;6.32;42.90;100524.00;3564943;40;20094;-67
2021/04/25 01:10:08;;;;;;;7.53;4.95;;;;;;;6.25;43.09;100519.78;3557300;40;20037;-67
2021/04/25 01:12:35;;;;;;;8.10;4.85;;;;;;;6.18;43.30;100518.16;3556363;40;20037;-68
2021/04/25 01:15:01;;;;;;;8.05;4.45;;;;;;;6.16;43.31;100519.91;3557704;40;20042;-67
2021/04/25 01:17:28;;;;;;;10.02;4.72;;;;;;;6.15;43.19;100523.41;3553781;40;20074;-68
2021/04/25 01:19:56;;;;;;;8.40;4.60;;;;;;;6.17;43.21;100516.44;3554051;40;20445;-67
2021/04/25 01:22:24;;;;;;;8.27;4.15;;;;;;;6.18;43.17;100520.75;3554940;40;20030;-67
2021/04/25 01:24:50;;;;;;;10.35;4.60;;;;;;;6.21;43.23;100519.84;3556703;40;20066;-67
2021/04/25 01:27:16;;;;;;;9.15;4.63;;;;;;;6.27;43.23;100523.22;3556658;40;20048;-68
2021/04/25 01:29:43;;;;;;;7.63;4.68;;;;;;;6.30;43.38;100520.56;3555756;40;20054;-67
2021/04/25 01:32:09;;;;;;;10.88;4.88;;;;;;;6.34;43.30;100517.00;3554125;40;20044;-68
2021/04/25 01:34:36;;;;;;;9.23;5.00;;;;;;;6.40;43.08;100513.44;3558154;40;20052;-67
2021/04/25 01:37:02;;;;;;;8.25;5.15;;;;;;;6.45;43.03;100505.53;3555987;40;20411;-67
2021/04/25 01:39:29;;;;;;;8.80;5.43;;;;;;;6.50;42.91;100503.75;3560864;40;20082;-67
2021/04/25 01:41:56;;;;;;;10.45;4.28;;;;;;;6.54;43.35;100495.84;3553899;40;20124;-67
2021/04/25 01:44:23;;;;;;;9.98;4.40;;;;;;;6.58;43.13;100507.91;3554995;40;20050;-68
2021/04/25 01:46:49;;;;;;;10.00;5.78;;;;;;;6.61;43.03;100502.66;3555409;40;20030;-68
2021/04/25 01:49:15;;;;;;;8.15;4.75;;;;;;;6.62;42.87;100493.09;3556350;40;20394;-67
2021/04/25 01:51:42;;;;;;;10.48;4.55;;;;;;;6.64;42.97;100497.38;3554642;40;20155;-68
2021/04/25 01:54:08;;;;;;;11.25;4.70;;;;;;;6.68;42.77;100500.81;3557423;40;20320;-68
2021/04/25 01:56:36;;;;;;;18.73;9.18;;;;;;;6.66;43.30;100489.53;3554855;40;20136;-68
2021/04/25 01:59:02;;;;;;;19.83;9.25;;;;;;;6.70;43.51;100492.06;3557404;40;20119;-67
2021/04/25 02:01:29;;;;;;;22.40;10.52;;;;;;;6.73;43.77;100492.00;3557150;40;20034;-68
2021/04/25 02:03:55;;;;;;;21.58;11.32;;;;;;;6.75;44.12;100491.97;3557555;40;20038;-68
2021/04/25 02:06:21;;;;;;;29.50;13.35;;;;;;;6.71;44.34;100499.00;3559494;40;20132;-68
2021/04/25 02:08:48;;;;;;;24.63;11.70;;;;;;;6.68;44.51;100503.41;3557103;40;20408;-67
2021/04/25 02:11:14;;;;;;;32.53;15.05;;;;;;;6.64;45.05;100491.31;3557216;40;20104;-67
2021/04/25 02:13:41;;;;;;;31.00;13.63;;;;;;;6.60;45.22;100489.66;3557661;40;20034;-68
2021/04/25 02:16:08;;;;;;;30.92;14.18;;;;;;;6.58;45.34;100481.00;3557994;40;20036;-66
2021/04/25 02:18:34;;;;;;;25.02;12.32;;;;;;;6.60;45.31;100480.09;3557420;40;20390;-67
2021/04/25 02:21:01;;;;;;;23.15;12.05;;;;;;;6.59;45.10;100485.31;3557801;40;20042;-68
2021/04/25 02:23:27;;;;;;;23.30;11.80;;;;;;;6.57;45.36;100485.34;3556303;40;20046;-67
2021/04/25 02:25:54;;;;;;;25.02;13.10;;;;;;;6.56;45.50;100480.19;3558179;40;20042;-68
2021/04/25 02:28:20;;;;;;;26.50;11.95;;;;;;;6.55;45.20;100487.13;3556991;40;20036;-67
2021/04/25 02:30:47;;;;;;;23.50;12.07;;;;;;;6.52;45.38;100482.00;3556556;40;20046;-67
2021/04/25 02:33:16;;;;;;;28.02;12.98;;;;;;;6.52;45.62;100489.81;3553704;40;20070;-67
2021/04/25 02:35:43;;;;;;;23.02;13.43;;;;;;;6.50;45.52;100503.75;3559248;40;20049;-69
2021/04/25 02:38:09;;;;;;;29.58;14.35;;;;;;;6.46;46.03;100497.72;3559889;40;20041;-67
2021/04/25 02:40:35;;;;;;;30.83;14.13;;;;;;;6.47;45.98;100498.59;3559276;40;20045;-67
2021/04/25 02:43:04;;;;;;;27.85;13.93;;;;;;;6.46;46.25;100499.47;3558829;40;20062;-67
2021/04/25 02:45:31;;;;;;;22.13;11.93;;;;;;;6.41;46.30;100495.19;3560187;40;20464;-67
2021/04/25 02:48:00;;;;;;;28.42;12.32;;;;;;;6.34;46.30;100496.19;3559360;40;20339;-68
2021/04/25 02:50:30;;;;;;;25.13;13.00;;;;;;;6.30;46.38;100497.13;3560076;40;20041;-67
2021/04/25 02:52:57;;;;;;;33.58;12.90;;;;;;;6.28;46.43;100498.91;3560236;40;20030;-67
2021/04/25 02:55:24;;;;;;;26.48;12.90;;;;;;;6.25;46.93;100491.16;3560160;40;20371;-67
2021/04/25 02:57:50;;;;;;;30.67;12.73;;;;;;;6.25;46.96;100491.16;3559462;40;20038;-67
2021/04/25 03:00:19;;;;;;;23.80;11.60;;;;;;;6.23;47.02;100485.06;3559632;40;20049;-67
2021/04/25 03:02:46;;;;;;;24.42;12.75;;;;;;;6.25;47.02;100488.53;3552332;40;20045;-67
2021/04/25 03:05:14;;;;;;;24.90;12.38;;;;;;;6.22;46.94;100482.50;3559260;40;20044;-68
2021/04/25 03:07:40;;;;;;;24.13;11.93;;;;;;;6.22;46.89;100480.75;3559033;40;20447;-67
2021/04/25 03:10:09;;;;;;;23.17;11.68;;;;;;;6.21;47.17;100488.59;3559574;40;20252;-67
2021/04/25 03:12:35;;;;;;;27.65;13.00;;;;;;;6.15;47.37;100492.16;3566351;40;20415;-67
2021/04/25 03:15:02;;;;;;;27.95;12.15;;;;;;;6.11;47.83;100490.50;3558945;40;20044;-67
2021/04/25 03:17:28;;;;;;;25.95;11.95;;;;;;;6.14;47.79;100500.00;3558911;40;20123;-67
2021/04/25 03:19:54;;;;;;;24.10;11.57;;;;;;;6.17;47.65;100497.34;3559464;40;20038;-68
2021/04/25 03:22:22;;;;;;;19.60;10.88;;;;;;;6.12;47.75;100494.81;3559259;40;20034;-68
2021/04/25 03:24:48;;;;;;;20.50;10.70;;;;;;;6.08;47.72;100490.56;3559730;40;20488;-66
2021/04/25 03:27:14;;;;;;;27.30;11.38;;;;;;;6.06;47.84;100502.75;3559494;40;20033;-66
2021/04/25 03:29:40;;;;;;;25.80;12.55;;;;;;;6.01;48.08;100500.19;3557603;40;20143;-67
2021/04/25 03:32:07;;;;;;;29.20;14.40;;;;;;;5.95;48.50;100499.44;3557804;40;20046;-67
2021/04/25 03:34:34;;;;;;;27.77;13.95;;;;;;;5.93;48.80;100501.19;3559336;40;20063;-66
2021/04/25 03:37:00;;;;;;;32.92;15.15;;;;;;;5.89;48.90;100491.69;3554035;40;20034;-68
2021/04/25 03:39:27;;;;;;;32.63;15.23;;;;;;;5.86;49.24;100494.34;3557735;40;20074;-67
2021/04/25 03:41:54;;;;;;;36.78;15.38;;;;;;;5.91;49.35;100495.16;3559561;40;20071;-67
2021/04/25 03:44:20;;;;;;;30.63;14.52;;;;;;;5.89;49.37;100500.38;3558539;40;20085;-67
2021/04/25 03:46:46;;;;;;;28.98;14.43;;;;;;;5.88;49.51;100497.78;3558718;40;20038;-67
2021/04/25 03:49:19;;;;;;;25.55;13.55;;;;;;;5.87;49.44;100501.28;3559448;40;20049;-67
2021/04/25 03:51:46;;;;;;;28.05;13.30;;;;;;;5.89;49.41;100489.09;3558937;40;20033;-67
2021/04/25 03:54:12;;;;;;;29.42;13.25;;;;;;;5.86;49.15;100492.59;3559257;40;20046;-68
2021/04/25 03:56:39;;;;;;;28.45;14.77;;;;;;;5.91;49.44;100495.16;3557773;40;20034;-67
2021/04/25 03:59:05;;;;;;;31.15;13.35;;;;;;;5.95;49.15;100505.50;3559299;40;20290;-67
2021/04/25 04:01:32;;;;;;;21.85;12.70;;;;;;;5.99;49.30;100501.09;3559036;40;20046;-67
2021/04/25 04:03:58;;;;;;;30.42;13.73;;;;;;;5.98;49.27;100499.38;3558447;40;20401;-68
2021/04/25 04:06:24;;;;;;;21.95;12.35;;;;;;;6.00;49.29;100503.66;3558414;40;20530;-67
2021/04/25 04:08:50;;;;;;;25.60;13.27;;;;;;;6.10;49.16;100504.41;3558986;40;20086;-67
2021/04/25 04:11:16;;;;;;;32.47;14.85;;;;;;;6.19;49.01;100506.84;3564001;40;20060;-67
2021/04/25 04:13:44;;;;;;;30.67;14.75;;;;;;;6.27;48.88;100509.34;3568589;40;20402;-67
2021/04/25 04:16:10;;;;;;;38.10;17.98;;;;;;;6.35;48.81;100505.72;3567549;40;20030;-68
2021/04/25 04:18:36;;;;;;;45.80;20.58;;;;;;;6.46;48.73;100504.69;3568983;40;20041;-67
2021/04/25 04:21:03;;;;;;;38.63;16.50;;;;;;;6.62;48.39;100513.91;3569006;40;20042;-68
2021/04/25 04:23:29;;;;;;;35.58;17.60;;;;;;;6.63;48.29;100510.44;3568978;40;20117;-67
2021/04/25 04:25:55;;;;;;;40.08;19.13;;;;;;;6.64;48.39;100507.78;3569403;40;20033;-67
2021/04/25 04:28:22;;;;;;;48.75;19.35;;;;;;;6.82;48.07;100501.38;3568047;40;20394;-67
2021/04/25 04:30:49;;;;;;;37.85;18.58;;;;;;;7.00;47.60;100497.56;3569173;40;20037;-67
2021/04/25 04:33:15;;;;;;;31.75;15.02;;;;;;;7.14;47.50;100499.91;3568440;40;20034;-67
2021/04/25 04:35:41;;;;;;;24.58;11.88;;;;;;;7.19;47.31;100498.06;3568491;40;20034;-66
2021/04/25 04:38:07;;;;;;;26.02;12.70;;;;;;;7.31;47.02;100498.69;3551749;40;20124;-67
2021/04/25 04:40:34;;;;;;;26.08;11.45;;;;;;;7.47;46.69;100499.19;3555150;40;20034;-68
2021/04/25 04:43:00;;;;;;;21.83;11.25;;;;;;;7.65;46.36;100498.78;3568600;40;20030;-67
2021/04/25 04:45:26;;;;;;;32.65;12.60;;;;;;;7.80;46.23;100491.50;3567437;40;20041;-67
2021/04/25 04:47:53;;;;;;;36.35;15.15;;;;;;;7.91;45.94;100494.72;3567699;40;20052;-67
2021/04/25 04:50:20;;;;;;;29.10;13.60;;;;;;;8.00;45.90;100499.75;3569411;40;20041;-67
2021/04/25 04:52:47;;;;;;;31.52;14.40;;;;;;;8.15;45.72;100498.53;3568585;40;20038;-67
2021/04/25 04:55:15;;;;;;;36.05;15.85;;;;;;;8.40;45.06;100501.41;3569361;40;20029;-67
2021/04/25 04:57:42;;;;;;;27.52;13.95;;;;;;;8.55;44.85;100491.44;3568453;40;20036;-67
2021/04/25 05:00:09;;;;;;;32.38;14.57;;;;;;;8.59;44.68;100491.34;3568575;40;20033;-66
2021/04/25 05:02:36;;;;;;;29.38;14.13;;;;;;;8.71;44.59;100499.69;3568538;40;20398;-68
2021/04/25 05:05:04;;;;;;;30.65;15.10;;;;;;;8.73;44.34;100482.22;3568815;40;20034;-67
2021/04/25 05:07:30;;;;;;;22.77;12.43;;;;;;;8.58;44.56;100487.88;3559882;40;20148;-66
2021/04/25 05:09:57;;;;;;;29.83;13.77;;;;;;;8.52;44.70;100488.00;3558938;40;20355;-67
2021/04/25 05:12:23;;;;;;;29.35;13.95;;;;;;;9.29;43.28;100476.28;3555393;40;20078;-67
2021/04/25 05:14:49;;;;;;;25.83;14.20;;;;;;;9.60;42.61;100477.09;3558269;40;20042;-67
2021/04/25 05:17:15;;;;;;;23.45;11.75;;;;;;;9.67;42.63;100475.16;3558810;40;20037;-67
2021/04/25 05:19:42;;;;;;;28.50;14.68;;;;;;;9.47;43.01;100481.84;3558940;40;20070;-67
2021/04/25 05:22:09;;;;;;;45.28;21.10;;;;;;;9.30;43.25;100476.25;3557731;40;20033;-68
2021/04/25 05:24:35;;;;;;;38.35;17.90;;;;;;;9.26;43.08;100479.88;3558964;40;20049;-67
2021/04/25 05:27:01;;;;;;;27.63;15.07;;;;;;;9.33;42.92;100480.53;3558381;40;20149;-69
2021/04/25 05:29:27;;;;;;;21.30;12.93;;;;;;;10.01;41.46;100486.28;3558277;40;20399;-67
2021/04/25 05:31:54;;;;;;;20.98;11.43;;;;;;;10.58;40.16;100480.00;3558745;40;20123;-67
2021/04/25 05:34:20;;;;;;;21.05;10.98;;;;;;;10.73;39.59;100475.16;3558053;40;20045;-67
2021/04/25 05:36:46;;;;;;;12.40;7.40;;;;;;;11.11;38.32;100476.41;3557507;40;20042;-67
2021/04/25 05:39:14;;;;;;;11.80;6.80;;;;;;;11.43;37.36;100477.78;3557368;40;20382;-66
2021/04/25 05:41:40;;;;;;;10.95;6.40;;;;;;;11.33;37.41;100481.69;3558192;40;20030;-67
2021/04/25 05:44:06;;;;;;;13.38;6.60;;;;;;;11.58;36.71;100480.69;3559688;40;20160;-67
2021/04/25 05:46:33;;;;;;;13.88;7.78;;;;;;;12.27;35.41;100477.94;3568490;40;20037;-67
2021/04/25 05:49:00;;;;;;;12.38;6.93;;;;;;;12.79;34.49;100481.00;3567373;40;20038;-67
2021/04/25 05:51:26;;;;;;;11.00;6.32;;;;;;;13.11;33.85;100479.56;3567594;40;20041;-68
2021/04/25 05:53:53;;;;;;;9.85;6.47;;;;;;;13.64;32.86;100473.63;3568292;40;20048;-68
2021/04/25 05:56:20;;;;;;;12.13;7.00;;;;;;;13.81;32.35;100476.31;3568072;40;20069;-67
2021/04/25 05:58:47;;;;;;;12.23;6.65;;;;;;;14.05;31.87;100482.19;3568375;40;20034;-67
2021/04/25 06:01:13;;;;;;;12.20;6.95;;;;;;;14.52;31.27;100476.34;3568664;40;20064;-67
2021/04/25 06:03:40;;;;;;;11.13;5.80;;;;;;;14.38;31.67;100481.47;3567793;40;20034;-67
2021/04/25 06:06:06;;;;;;;8.95;6.03;;;;;;;14.32;31.53;100474.69;3556831;40;20078;-69
2021/04/25 06:08:32;;;;;;;8.10;5.40;;;;;;;15.24;29.84;100479.56;3557706;40;20057;-68
2021/04/25 06:10:59;;;;;;;9.55;5.97;;;;;;;16.38;28.14;100479.34;3559110;40;20086;-68
2021/04/25 06:13:26;;;;;;;8.57;4.70;;;;;;;16.67;27.44;100478.53;3559548;40;20032;-67
2021/04/25 06:15:52;;;;;;;10.50;5.38;;;;;;;17.76;26.16;100469.97;3552051;40;20038;-68
2021/04/25 06:18:19;;;;;;;8.45;5.88;;;;;;;19.08;24.24;100468.13;3557440;40;20038;-67
2021/04/25 06:20:45;;;;;;;10.38;6.20;;;;;;;19.96;23.01;100465.38;3560222;40;20116;-67
2021/04/25 06:23:13;;;;;;;8.13;4.40;;;;;;;20.79;21.34;100466.16;3559579;40;20046;-67
2021/04/25 06:25:40;;;;;;;6.70;3.88;;;;;;;20.77;21.45;100462.78;3560326;40;20241;-67
2021/04/25 06:28:06;;;;;;;6.65;3.22;;;;;;;21.20;20.10;100467.41;3559399;40;20030;-67
2021/04/25 06:30:33;;;;;;;3.92;2.40;;;;;;;21.75;19.31;100457.69;3560390;40;20074;-68
2021/04/25 06:33:05;;;;;;;4.63;3.30;;;;;;;22.64;18.16;100454.66;3559372;40;20395;-68
2021/04/25 06:35:31;;;;;;;3.50;2.50;;;;;;;22.90;17.87;100454.25;3560392;40;20037;-67
2021/04/25 06:37:58;;;;;;;6.57;3.50;;;;;;;23.10;17.88;100448.88;3559959;40;20034;-68
2021/04/25 06:40:24;;;;;;;6.57;3.45;;;;;;;22.97;17.87;100452.78;3558625;40;20034;-67
2021/04/25 06:42:50;;;;;;;4.10;3.17;;;;;;;23.38;16.88;100454.50;3559058;40;20039;-67
2021/04/25 06:45:19;;;;;;;5.07;3.42;;;;;;;24.54;15.79;100455.47;3565421;40;20374;-67
2021/04/25 06:47:46;;;;;;;3.67;2.75;;;;;;;25.42;14.74;100440.00;3557979;40;20037;-68
2021/04/25 06:50:14;;;;;;;4.97;2.80;;;;;;;25.39;14.65;100441.09;3557653;40;20042;-69
2021/04/25 06:52:43;;;;;;;5.95;3.78;;;;;;;26.67;13.62;100446.25;3557797;40;20038;-67
2021/04/25 06:55:12;;;;;;;3.28;2.67;;;;;;;28.64;12.26;100447.56;3558067;40;20099;-69
2021/04/25 06:57:38;;;;;;;2.83;2.38;;;;;;;29.74;11.53;100438.59;3558796;40;20036;-68
2021/04/25 07:00:06;;;;;;;3.90;3.00;;;;;;;31.35;9.94;100441.91;3558923;40;20042;-67
2021/04/25 07:02:42;;;;;;;5.15;3.20;;;;;;;32.79;10.13;100438.16;3557661;40;20113;-67
2021/04/25 07:05:11;;;;;;;3.45;2.83;;;;;;;33.98;8.66;100441.47;3558059;40;20050;-68
2021/04/25 07:07:38;;;;;;;2.92;2.60;;;;;;;34.41;8.62;100441.13;3556074;40;20060;-67
2021/04/25 07:10:06;;;;;;;3.42;2.60;;;;;;;34.84;8.06;100436.91;3539584;40;20045;-68
2021/04/25 07:12:32;;;;;;;2.70;2.47;;;;;;;35.95;7.28;100433.97;3563405;40;20040;-68
2021/04/25 07:14:59;;;;;;;3.40;2.55;;;;;;;36.86;6.72;100436.22;3555778;40;20034;-67
2021/04/25 07:17:25;;;;;;;2.13;1.90;;;;;;;37.18;6.64;100433.31;3557114;40;20042;-69
2021/04/25 07:19:51;;;;;;;3.05;2.28;;;;;;;37.95;6.08;100436.34;3556914;40;20046;-67
2021/04/25 07:22:19;;;;;;;3.55;2.47;;;;;;;37.84;6.51;100422.38;3557397;40;20065;-67
2021/04/25 07:24:45;;;;;;;3.85;2.70;;;;;;;38.07;6.01;100432.53;3556554;40;20417;-68
2021/04/25 07:27:12;;;;;;;4.03;2.60;;;;;;;39.05;6.13;100428.34;3555764;40;20046;-68
2021/04/25 07:29:38;;;;;;;3.33;2.50;;;;;;;40.21;5.09;100421.59;3554744;40;20042;-68
2021/04/25 07:32:06;;;;;;;4.10;2.30;;;;;;;41.01;4.86;100430.50;3556481;40;20323;-68
2021/04/25 07:34:44;;;;;;;3.08;2.42;;;;;;;41.89;4.33;100434.91;3556354;40;20053;-68
2021/04/25 07:37:10;;;;;;;2.63;2.25;;;;;;;42.49;3.77;100432.97;3557758;40;20037;-70
2021/04/25 07:39:38;;;;;;;3.90;2.47;;;;;;;43.34;3.51;100431.00;3557710;40;20248;-68
2021/04/25 07:42:06;;;;;;;4.75;3.10;;;;;;;39.78;5.13;100427.69;3557230;40;20549;-69
2021/04/25 07:44:32;;;;;;;3.92;2.65;;;;;;;41.19;4.65;100419.19;3564867;40;20109;-68
2021/04/25 07:46:59;;;;;;;3.42;2.60;;;;;;;42.69;3.80;100430.34;3555635;40;20367;-68
2021/04/25 07:49:26;;;;;;;3.35;2.38;;;;;;;42.98;4.42;100428.06;3556381;40;20351;-68
2021/04/25 07:51:52;;;;;;;3.88;2.63;;;;;;;38.36;5.75;100436.34;3557005;40;20033;-69
2021/04/25 07:54:18;;;;;;;3.65;2.83;;;;;;;40.52;4.62;100428.44;3557645;40;20053;-68
2021/04/25 07:56:46;;;;;;;2.85;2.47;;;;;;;43.17;3.25;100422.88;3554931;40;20042;-68
2021/04/25 07:59:13;;;;;;;3.65;2.50;;;;;;;44.29;2.94;100428.66;3553880;40;20038;-69
2021/04/25 08:01:40;;;;;;;3.25;2.95;;;;;;;43.66;2.83;100434.38;3555443;40;20054;-68
2021/04/25 08:04:14;;;;;;;3.03;2.10;;;;;;;36.86;5.42;100451.75;3555289;40;20037;-67
2021/04/25 08:06:40;;;;;;;3.85;2.20;;;;;;;31.81;7.44;100449.78;3555340;40;20046;-68
2021/04/25 08:09:06;;;;;;;3.70;2.15;;;;;;;29.01;9.19;100454.28;3556036;40;20119;-68
2021/04/25 08:11:33;;;;;;;3.97;2.20;;;;;;;26.64;10.67;100462.69;3556834;40;20303;-68
2021/04/25 08:14:00;;;;;;;3.20;2.10;;;;;;;24.76;11.56;100464.19;3557130;40;20260;-67
2021/04/25 08:16:27;;;;;;;3.17;2.20;;;;;;;23.62;12.02;100463.03;3556839;40;20038;-68
2021/04/25 08:18:54;;;;;;;4.90;2.55;;;;;;;23.89;11.91;100465.03;3557834;40;20042;-67
2021/04/25 08:21:20;;;;;;;4.10;2.70;;;;;;;27.29;10.18;100449.66;3556701;40;20115;-68
2021/04/25 08:23:46;;;;;;;5.35;2.67;;;;;;;25.45;10.87;100463.84;3555749;40;20412;-66
2021/04/25 08:26:12;;;;;;;4.35;2.40;;;;;;;23.78;11.76;100465.19;3557096;40;20492;-67
2021/04/25 08:28:39;;;;;;;2.90;2.35;;;;;;;22.66;12.43;100474.06;3557330;40;20042;-67
2021/04/25 08:31:16;;;;;;;2.53;2.33;;;;;;;21.70;13.38;100468.75;3556304;40;20059;-66
2021/04/25 08:33:46;;;;;;;2.92;2.17;;;;;;;20.70;13.95;100482.88;3555108;40;20022;-68
2021/04/25 08:36:14;;;;;;;4.45;2.40;;;;;;;20.20;14.37;100476.88;3555979;40;20037;-69
2021/04/25 08:38:41;;;;;;;5.20;2.75;;;;;;;22.66;12.60;100462.53;3558910;40;20046;-68
2021/04/25 08:41:12;;;;;;;3.47;2.45;;;;;;;27.56;10.16;100446.72;3558245;40;20034;-68
2021/04/25 08:43:42;;;;;;;3.58;2.30;;;;;;;30.51;8.43;100432.28;3559728;40;20029;-68
2021/04/25 08:46:10;;;;;;;3.23;2.70;;;;;;;34.22;6.55;100426.44;3556753;40;20042;-72
2021/04/25 08:48:37;;;;;;;3.15;2.40;;;;;;;36.90;5.87;100417.47;3557500;40;20330;-69
2021/04/25 08:51:03;;;;;;;3.00;2.30;;;;;;;38.58;4.65;100413.84;3557936;40;20311;-68
2021/04/25 08:53:31;;;;;;;3.10;2.22;;;;;;;39.11;4.46;100407.38;3554350;40;20044;-68
2021/04/25 08:55:58;;;;;;;2.78;2.45;;;;;;;39.74;4.22;100406.44;3555378;40;20038;-68
2021/04/25 08:58:24;;;;;;;5.00;2.90;;;;;;;40.27;3.99;100419.75;3563751;40;20030;-67
2021/04/25 09:00:50;;;;;;;4.35;2.90;;;;;;;34.54;6.49;100424.75;3557557;40;20030;-68
2021/04/25 09:03:17;;;;;;;2.65;1.95;;;;;;;30.01;8.54;100433.72;3556502;40;20335;-67
2021/04/25 09:05:44;;;;;;;4.72;3.00;;;;;;;26.93;10.20;100435.50;3557467;40;20271;-67
2021/04/25 09:08:11;;;;;;;2.85;2.35;;;;;;;24.93;11.15;100448.19;3564162;40;20082;-69
2021/04/25 09:10:39;;;;;;;3.92;2.70;;;;;;;23.48;12.13;100443.81;3557136;40;20038;-68
2021/04/25 09:13:17;;;;;;;6.13;4.13;;;;;;;22.14;12.58;100443.75;3555648;40;20307;-68
2021/04/25 09:15:44;;;;;;;7.28;3.58;;;;;;;21.20;13.33;100451.41;3557024;40;20123;-68
2021/04/25 09:18:11;;;;;;;5.65;3.38;;;;;;;20.46;13.73;100447.47;3556562;40;20045;-67
2021/04/25 09:20:40;;;;;;;3.67;2.50;;;;;;;19.75;14.31;100447.38;3557587;40;20073;-68
2021/04/25 09:23:09;;;;;;;4.10;3.13;;;;;;;21.24;13.35;100436.94;3556701;40;20078;-67
2021/04/25 09:25:35;;;;;;;3.88;2.45;;;;;;;26.43;9.40;100415.50;3557717;40;20065;-68
2021/04/25 09:28:14;;;;;;;5.30;4.35;;;;;;;30.81;7.80;100400.72;3557789;40;20152;-69
2021/04/25 09:30:55;;;;;;;3.08;2.42;;;;;;;33.67;6.07;100389.50;3556607;40;20034;-68
2021/04/25 09:33:21;;;;;;;3.53;2.47;;;;;;;35.23;5.34;100394.25;3573485;40;20041;-68
2021/04/25 09:35:48;;;;;;;3.30;2.17;;;;;;;36.66;4.82;100391.84;3558407;40;20281;-68
2021/04/25 09:38:15;;;;;;;2.10;1.90;;;;;;;37.70;4.44;100385.34;3557542;40;20034;-68
2021/04/25 09:40:44;;;;;;;3.47;2.00;;;;;;;38.55;4.15;100374.06;3557998;40;20110;-67
2021/04/25 09:43:13;;;;;;;3.65;2.38;;;;;;;38.50;4.24;100373.09;3553869;40;20426;-68
2021/04/25 09:45:45;;;;;;;4.85;3.88;;;;;;;36.86;4.82;100386.19;3556415;40;20042;-69
2021/04/25 09:48:24;;;;;;;2.72;2.00;;;;;;;33.94;6.16;100392.09;3556337;40;20041;-69
2021/04/25 09:51:11;;;;;;;3.08;2.17;;;;;;;34.24;5.78;100389.81;3556400;40;20101;-69
2021/04/25 09:53:40;;;;;;;2.55;1.90;;;;;;;32.12;6.63;100387.09;3554873;40;20152;-66
2021/04/25 09:56:09;;;;;;;2.00;1.80;;;;;;;29.39;7.72;100396.75;3556365;40;20414;-69
2021/04/25 09:58:55;;;;;;;1.75;1.65;;;;;;;27.33;9.07;100400.72;3555980;40;20034;-68
2021/04/25 10:01:25;;;;;;;1.95;1.77;;;;;;;25.70;9.36;100412.13;3555590;40;20038;-68
2021/04/25 10:03:52;;;;;;;2.65;2.13;;;;;;;24.29;10.02;100410.53;3555875;40;20054;-69
2021/04/25 10:06:19;;;;;;;3.38;2.13;;;;;;;23.23;10.75;100410.38;3557311;40;20046;-68
2021/04/25 10:08:49;;;;;;;4.68;3.42;;;;;;;22.87;11.45;100401.91;3557181;40;20034;-67
2021/04/25 10:11:25;;;;;;;4.45;2.85;;;;;;;22.66;11.56;100395.72;3555391;40;20116;-68
2021/04/25 10:13:51;;;;;;;2.45;1.98;;;;;;;21.65;12.23;100414.03;3557393;40;20089;-67
2021/04/25 10:16:20;;;;;;;4.75;2.47;;;;;;;20.61;12.58;100419.63;3557209;40;20112;-67
2021/04/25 10:18:46;;;;;;;2.60;1.90;;;;;;;20.09;12.89;100421.78;3554995;40;20057;-67
2021/04/25 10:21:13;;;;;;;2.17;1.98;;;;;;;19.28;12.96;100418.03;3556727;40;20042;-67
2021/04/25 10:23:40;;;;;;;4.57;3.00;;;;;;;18.35;13.17;100422.72;3558187;40;20042;-68
2021/04/25 10:26:10;;;;;;;5.07;3.50;;;;;;;17.64;14.03;100429.16;3557080;40;20093;-67
2021/04/25 10:28:43;;;;;;;3.73;2.60;;;;;;;17.17;14.62;100424.25;3556035;40;20074;-67
2021/04/25 10:31:12;;;;;;;2.67;2.13;;;;;;;16.89;14.69;100424.28;3557435;40;20268;-67
2021/04/25 10:33:52;;;;;;;3.15;2.17;;;;;;;16.84;14.94;100423.69;3557015;40;20086;-67
2021/04/25 10:36:19;;;;;;;2.63;2.20;;;;;;;16.93;14.77;100420.47;3556837;40;20034;-69
2021/04/25 10:38:46;;;;;;;2.67;2.13;;;;;;;17.00;15.18;100416.50;3555888;40;20400;-69
2021/04/25 10:41:21;;;;;;;3.00;1.95;;;;;;;17.09;15.31;100413.28;3564363;40;20034;-69
2021/04/25 10:43:59;;;;;;;3.00;2.03;;;;;;;17.27;14.80;100412.09;3555721;40;20050;-68
2021/04/25 10:46:27;;;;;;;2.17;1.90;;;;;;;17.59;14.68;100409.22;3557299;40;20046;-68
2021/04/25 10:49:28;;;;;;;3.92;2.30;;;;;;;18.10;14.72;100398.78;3556763;40;20467;-67
2021/04/25 10:51:54;;;;;;;2.20;1.85;;;;;;;18.03;14.36;100416.06;3555866;40;20026;-68
2021/04/25 10:54:20;;;;;;;2.65;2.13;;;;;;;17.88;14.79;100413.47;3556779;40;20081;-68
2021/04/25 10:57:06;;;;;;;6.13;2.78;;;;;;;18.09;14.48;100407.69;3557261;40;20066;-68
2021/04/25 10:59:33;;;;;;;3.60;2.35;;;;;;;18.17;14.69;100421.31;3557146;40;20328;-67
2021/04/25 11:02:03;;;;;;;10.18;3.92;;;;;;;18.05;14.99;100411.50;3556749;40;20045;-68
2021/04/25 11:05:05;;;;;;;3.45;2.53;;;;;;;17.80;14.79;100418.44;3557906;40;20040;-68
2021/04/25 11:07:51;;;;;;;4.20;2.50;;;;;;;17.39;15.35;100423.72;3557687;40;20034;-69
2021/04/25 11:10:23;;;;;;;3.35;1.83;;;;;;;16.94;15.39;100422.19;3558094;40;20115;-68
2021/04/25 11:12:51;;;;;;;2.03;1.92;;;;;;;16.70;15.42;100430.69;3556797;40;20070;-68
2021/04/25 11:15:49;;;;;;;2.25;1.70;;;;;;;16.43;15.28;100432.28;3556865;40;20057;-68
2021/04/25 11:18:47;;;;;;;1.95;1.35;;;;;;;16.00;15.75;100442.75;3557331;40;20045;-68
2021/04/25 11:21:48;;;;;;;2.45;1.80;;;;;;;15.75;15.71;100439.81;3557736;40;20045;-68
2021/04/25 11:24:25;;;;;;;;;;;;;;;15.88;15.82;100440.81;3558109;40;20311;-69
2021/04/25 11:26:53;;;;;;;5.10;2.78;;;;;;;15.75;15.96;100450.38;3558313;40;19965;-68
2021/04/25 11:29:23;;;;;;;14.68;6.38;;;;;;;15.80;16.52;100449.19;3558104;40;20359;-68